FRIANT DAM (MILLERTON) (MIL)

Elevation: 581' · SAN JOAQUIN R basin · Operator: US Bureau of Reclamation

Provisional data, subject to change.
Query executed Thursday at 7:33:22   clock

Select a sensor type for a plot of data.
Note: Reservoir Flows are daily averages.

Earlier

Date RES ELE    STORAGE    RES CHG    TOC STO    ABV TOC    OUTFLOW    INFLOW    EVAP    FNF    RIV REL    PPT INC    SPILL   
 FEET   AF   AF   AF   AF   CFS   CFS   CFS   CFS   CFS   INCHES   CFS  
04/27/2016 523.22 290537 1088 520500 -229963 1684 2252 19 3195 276 0.00 0
04/28/2016 523.49 291487 950 520500 -229013 1631 2125 15 2982 407 0.00 0
04/29/2016 523.84 292719 1232 520500 -227781 1348 1994 25 2675 330 0.00 0
04/30/2016 524.36 294558 1839 520500 -225942 1126 2069 16 3130 277 0.00 0
05/01/2016 524.82 296188 1630 520500 -224312 1305 2159 32 3119 278 0.00 0
05/02/2016 525.11 297219 1031 520500 -223281 1636 2193 37 3132 408 0.00 0
05/03/2016 525.25 297719 500 520500 -222781 1741 2018 25 3922 333 0.00 0
05/04/2016 525.25 297719 0 520500 -222781 1682 1703 21 3921 262 0.00 0
05/05/2016 525.55 298790 1071 520500 -221710 1525 2082 17 4074 262 0.07 0
05/06/2016 526.08 300684 1894 520500 -219816 1370 2338 13 3924 263 0.07 0
05/07/2016 526.63 302662 1978 520500 -217838 1287 2300 16 3497 263 0.03 0
05/08/2016 526.92 303705 1043 520500 -216795 1570 2108 12 3351 263 0.00 0
05/09/2016 526.97 303885 180 520500 -216615 1927 2040 22 3597 344 0.00 0
05/10/2016 527.07 304247 362 520500 -216253 2150 2362 29 5265 335 0.00 0
05/11/2016 527.10 304355 108 520500 -216145 2202 2284 28 6100 322 0.00 0
05/12/2016 527.17 304609 254 520500 -215891 2053 2215 34 7141 322 0.00 0
05/13/2016 527.39 305406 797 520500 -215094 1758 2202 42 7827 322 0.00 0
05/14/2016 527.92 307325 1919 520500 -213175 1262 2272 43 8083 322 0.00 0
05/15/2016 528.49 309404 2079 520500 -211096 1254 2333 31 7507 329 0.00 0
05/16/2016 529.02 311339 1935 520500 -209161 1468 2479 35 6440 340 0.00 0
05/17/2016 529.51 313139 1800 520500 -207361 1530 2469 32 6251 341 0.00 0
05/18/2016 530.10 315308 2169 520500 -205192 1503 2639 42 6291 342 0.00 0
05/19/2016 530.69 317481 2173 520500 -203019 1497 2638 45 7136 342 0.00 0
05/20/2016 531.62 320923 3442 520500 -199577 1382 3140 23 5093 342 0.00 0
05/21/2016 532.70 324947 4024 520500 -195553 1196 3259 34 5541 343 0.00 0
05/22/2016 533.69 328664 3717 520500 -191836 1242 3142 26 3617 339 0.00 0
05/23/2016 534.72 332557 3893 520500 -187943 1394 3394 37 3562 325 0.00 0
05/24/2016 535.64 336059 3502 -- -- -- -- -- 3273 -- -- --
05/25/2016 536.60 339737 3678 -- -- -- -- -- -- -- -- --
05/26/2016 -- -- -- -- -- -- -- -- -- -- -- --

Later | Latest

Warning! This data is preliminary and subject to revision.

Show MIL Map | Plot MIL Data | 1 Month MIL Data | Real-Time MIL Data | MIL Info